Time;durP1;ratioP1;P1;durP2;ratioP2;P2;SDS_P1;SDS_P2;PMS_P1;PMS_P2;Temp;Humidity;BMP_temperature;BMP_pressure;BME280_temperature;BME280_humidity;BME280_pressure;Samples;Min_cycle;Max_cycle;Signal;HPM_P1;HPM_P2
2021/06/13 00:01:26;;;;;;;30.27;27.27;;;;;;;;;;5054409;28;20405;-82
2021/06/13 00:03:53;;;;;;;31.80;27.90;;;;;;;;;;5054404;28;20917;-83
2021/06/13 00:06:19;;;;;;;31.92;28.55;;;;;;;;;;5055583;28;20973;-83
2021/06/13 00:08:46;;;;;;;33.15;29.60;;;;;;;;;;5051196;28;20526;-84
2021/06/13 00:11:12;;;;;;;33.03;29.53;;;;;;;;;;5054180;28;20402;-83
2021/06/13 00:13:40;;;;;;;35.20;30.53;;;;;;;;;;5054008;28;20510;-83
2021/06/13 00:16:07;;;;;;;34.28;30.63;;;;;;;;;;5051683;28;20390;-83
2021/06/13 00:18:35;;;;;;;35.00;31.27;;;;;;;;;;5046379;28;20404;-84
2021/06/13 00:21:02;;;;;;;37.42;33.40;;;;;;;;;;5053204;28;20414;-83
2021/06/13 00:23:29;;;;;;;37.35;33.10;;;;;;;;;;5053507;28;20405;-84
2021/06/13 00:25:56;;;;;;;35.92;32.13;;;;;;;;;;5050657;28;20407;-84
2021/06/13 00:28:22;;;;;;;37.97;33.87;;;;;;;;;;5056485;28;20400;-83
2021/06/13 00:30:48;;;;;;;39.72;33.47;;;;;;;;;;5059171;28;20492;-84
2021/06/13 00:33:15;;;;;;;39.63;35.22;;;;;;;;;;5038590;28;20428;-83
2021/06/13 00:35:43;;;;;;;38.75;34.55;;;;;;;;;;5053345;28;20484;-84
2021/06/13 00:38:09;;;;;;;40.23;35.33;;;;;;;;;;5053881;28;20497;-83
2021/06/13 00:40:36;;;;;;;39.28;34.92;;;;;;;;;;5054281;28;20859;-83
2021/06/13 00:43:03;;;;;;;41.00;34.65;;;;;;;;;;5056340;28;20398;-83
2021/06/13 00:45:30;;;;;;;40.42;35.00;;;;;;;;;;5055631;28;20398;-83
2021/06/13 00:47:57;;;;;;;42.05;36.53;;;;;;;;;;5059562;28;20410;-83
2021/06/13 00:50:28;;;;;;;41.97;35.25;;;;;;;;;;5054008;28;20411;-83
2021/06/13 00:52:58;;;;;;;42.42;34.85;;;;;;;;;;5058414;28;20422;-83
2021/06/13 00:55:25;;;;;;;39.28;33.03;;;;;;;;;;5056270;28;20889;-83
2021/06/13 00:57:52;;;;;;;34.38;29.95;;;;;;;;;;5059716;28;20415;-83
2021/06/13 01:00:22;;;;;;;31.77;28.45;;;;;;;;;;5056965;28;20403;-83
2021/06/13 01:02:49;;;;;;;32.30;28.80;;;;;;;;;;5059954;28;20409;-83
2021/06/13 01:05:16;;;;;;;33.05;28.27;;;;;;;;;;5059179;28;20398;-83
2021/06/13 01:07:48;;;;;;;32.95;29.20;;;;;;;;;;5056102;28;20819;-83
2021/06/13 01:10:34;;;;;;;31.83;28.38;;;;;;;;;;5057086;28;20417;-83
2021/06/13 01:13:06;;;;;;;32.20;28.67;;;;;;;;;;5059848;28;21286;-83
2021/06/13 01:15:38;;;;;;;32.38;28.88;;;;;;;;;;5054962;28;20463;-83
2021/06/13 01:18:08;;;;;;;35.85;30.90;;;;;;;;;;5052794;28;20424;-82
2021/06/13 01:20:40;;;;;;;34.45;30.45;;;;;;;;;;5055567;28;20401;-83
2021/06/13 01:23:28;;;;;;;35.17;30.73;;;;;;;;;;5043391;28;20424;-83
2021/06/13 01:26:30;;;;;;;36.20;30.92;;;;;;;;;;5049447;28;20424;-83
2021/06/13 01:29:08;;;;;;;34.15;30.45;;;;;;;;;;5010291;28;20899;-83
2021/06/13 01:31:37;;;;;;;36.05;32.15;;;;;;;;;;5055254;28;20441;-83
2021/06/13 01:34:08;;;;;;;35.92;31.63;;;;;;;;;;5057295;28;20946;-83
2021/06/13 01:36:36;;;;;;;35.85;31.95;;;;;;;;;;5057546;28;20422;-83
2021/06/13 01:39:05;;;;;;;36.42;31.90;;;;;;;;;;5058096;28;20409;-83
2021/06/13 01:41:34;;;;;;;35.88;31.98;;;;;;;;;;5053783;28;20394;-83
2021/06/13 01:44:02;;;;;;;37.75;32.15;;;;;;;;;;5057705;28;20403;-83
2021/06/13 01:46:33;;;;;;;35.72;31.80;;;;;;;;;;5054192;28;20404;-83
2021/06/13 01:49:00;;;;;;;36.53;32.50;;;;;;;;;;5057635;28;20395;-84
2021/06/13 01:51:26;;;;;;;40.97;33.17;;;;;;;;;;5053680;28;20399;-83
2021/06/13 01:53:53;;;;;;;39.08;34.75;;;;;;;;;;5055412;28;20403;-83
2021/06/13 01:56:21;;;;;;;41.10;35.53;;;;;;;;;;5051108;28;20892;-83
2021/06/13 01:58:49;;;;;;;43.28;36.25;;;;;;;;;;5051697;28;20401;-83
2021/06/13 02:01:20;;;;;;;43.90;36.40;;;;;;;;;;5051894;28;20408;-83
2021/06/13 02:03:50;;;;;;;42.13;36.58;;;;;;;;;;5042641;28;20402;-83
2021/06/13 02:06:19;;;;;;;44.23;37.67;;;;;;;;;;5047003;28;20410;-83
2021/06/13 02:08:46;;;;;;;43.97;37.65;;;;;;;;;;5045107;28;20402;-83
2021/06/13 02:11:15;;;;;;;45.03;37.65;;;;;;;;;;5043421;28;20398;-83
2021/06/13 02:13:45;;;;;;;43.38;38.03;;;;;;;;;;5043447;28;20402;-83
2021/06/13 02:16:14;;;;;;;42.28;37.67;;;;;;;;;;5044089;28;20399;-83
2021/06/13 02:18:44;;;;;;;46.05;38.78;;;;;;;;;;5047496;28;21330;-83
2021/06/13 02:21:12;;;;;;;47.15;38.45;;;;;;;;;;5046208;28;20461;-83
2021/06/13 02:23:40;;;;;;;46.78;37.78;;;;;;;;;;5044624;28;20396;-84
2021/06/13 02:26:08;;;;;;;46.90;39.65;;;;;;;;;;5045923;28;20453;-83
2021/06/13 02:28:39;;;;;;;45.90;39.10;;;;;;;;;;5044858;28;20404;-84
2021/06/13 02:31:08;;;;;;;44.75;39.20;;;;;;;;;;5046378;28;20430;-83
2021/06/13 02:33:39;;;;;;;44.75;38.83;;;;;;;;;;5043066;28;20725;-83
2021/06/13 02:36:07;;;;;;;49.47;39.17;;;;;;;;;;5045150;28;20411;-83
2021/06/13 02:38:34;;;;;;;46.67;39.55;;;;;;;;;;5042544;28;20395;-83
2021/06/13 02:41:01;;;;;;;47.42;40.10;;;;;;;;;;5043985;28;20406;-83
2021/06/13 02:43:28;;;;;;;48.13;40.10;;;;;;;;;;5044817;28;20866;-83
2021/06/13 02:45:55;;;;;;;46.95;40.00;;;;;;;;;;5054695;28;20397;-83
2021/06/13 02:48:21;;;;;;;50.17;40.03;;;;;;;;;;5061938;28;20395;-83
2021/06/13 02:50:48;;;;;;;49.80;40.63;;;;;;;;;;5050327;28;20392;-83
2021/06/13 02:53:23;;;;;;;49.25;40.70;;;;;;;;;;5034660;28;20410;-83
2021/06/13 02:55:55;;;;;;;47.75;40.05;;;;;;;;;;5039988;28;20414;-83
2021/06/13 02:58:34;;;;;;;50.13;42.00;;;;;;;;;;5038386;28;20919;-83
2021/06/13 03:01:01;;;;;;;46.58;39.78;;;;;;;;;;5037640;28;20445;-83
2021/06/13 03:03:28;;;;;;;48.65;41.38;;;;;;;;;;5039044;28;20414;-83
2021/06/13 03:05:56;;;;;;;51.33;40.67;;;;;;;;;;5034902;28;20485;-83
2021/06/13 03:08:24;;;;;;;48.35;41.72;;;;;;;;;;5036866;28;20404;-84
2021/06/13 03:10:52;;;;;;;50.60;41.15;;;;;;;;;;5037776;28;20400;-83
2021/06/13 03:13:22;;;;;;;48.70;41.55;;;;;;;;;;5032654;28;20805;-84
2021/06/13 03:15:49;;;;;;;49.70;41.95;;;;;;;;;;5036860;28;20418;-82
2021/06/13 03:18:16;;;;;;;49.20;41.90;;;;;;;;;;5034401;28;20816;-83
2021/06/13 03:20:44;;;;;;;49.20;41.15;;;;;;;;;;5037003;28;20396;-83
2021/06/13 03:23:11;;;;;;;48.75;41.40;;;;;;;;;;5034591;28;20816;-83
2021/06/13 03:25:39;;;;;;;49.93;42.27;;;;;;;;;;5036653;28;20473;-81
2021/06/13 03:28:07;;;;;;;49.55;40.97;;;;;;;;;;5038243;28;20614;-83
2021/06/13 03:30:35;;;;;;;50.83;41.25;;;;;;;;;;5029680;28;20397;-83
2021/06/13 03:33:02;;;;;;;50.55;42.50;;;;;;;;;;5037339;28;20396;-82
2021/06/13 03:35:30;;;;;;;48.67;41.05;;;;;;;;;;5033971;28;20400;-84
2021/06/13 03:37:57;;;;;;;49.25;41.05;;;;;;;;;;5036735;28;20430;-82
2021/06/13 03:40:26;;;;;;;53.28;42.97;;;;;;;;;;5035084;28;20401;-82
2021/06/13 03:42:56;;;;;;;51.55;42.17;;;;;;;;;;5037613;28;20517;-83
2021/06/13 03:45:25;;;;;;;52.88;43.33;;;;;;;;;;5035027;28;20489;-83
2021/06/13 03:47:53;;;;;;;53.58;42.53;;;;;;;;;;5036255;28;20481;-84
2021/06/13 03:50:21;;;;;;;51.38;42.05;;;;;;;;;;5035351;28;20929;-84
2021/06/13 03:52:48;;;;;;;51.38;42.55;;;;;;;;;;5037854;28;20403;-83
2021/06/13 03:55:15;;;;;;;50.10;41.67;;;;;;;;;;5036876;28;20896;-84
2021/06/13 03:57:45;;;;;;;50.72;41.75;;;;;;;;;;5035465;28;20429;-84
2021/06/13 04:00:16;;;;;;;48.75;40.75;;;;;;;;;;5033644;28;20409;-84
2021/06/13 04:02:45;;;;;;;48.60;41.08;;;;;;;;;;5035548;28;20409;-84
2021/06/13 04:05:14;;;;;;;47.72;40.90;;;;;;;;;;5034375;28;20421;-84
2021/06/13 04:07:42;;;;;;;47.97;40.15;;;;;;;;;;5050712;28;20401;-84
2021/06/13 04:10:11;;;;;;;49.28;40.58;;;;;;;;;;5053781;28;20400;-82
2021/06/13 04:12:39;;;;;;;47.60;40.15;;;;;;;;;;5058444;28;20889;-83
2021/06/13 04:15:09;;;;;;;48.15;39.75;;;;;;;;;;5055002;28;20394;-84
2021/06/13 04:17:39;;;;;;;47.17;40.30;;;;;;;;;;5051920;28;20417;-83
2021/06/13 04:20:08;;;;;;;50.35;40.25;;;;;;;;;;5056915;28;20831;-82
2021/06/13 04:22:38;;;;;;;48.30;40.13;;;;;;;;;;5056450;28;20491;-84
2021/06/13 04:25:07;;;;;;;45.47;39.55;;;;;;;;;;5057465;28;20909;-84
2021/06/13 04:27:36;;;;;;;47.90;40.30;;;;;;;;;;5047689;28;20982;-84
2021/06/13 04:30:04;;;;;;;46.42;38.40;;;;;;;;;;5052229;28;20400;-83
2021/06/13 04:32:31;;;;;;;46.63;39.55;;;;;;;;;;5049289;28;20410;-83
2021/06/13 04:35:00;;;;;;;46.50;39.00;;;;;;;;;;5055362;28;20402;-84
2021/06/13 04:37:28;;;;;;;45.53;38.35;;;;;;;;;;5052344;28;21089;-84
2021/06/13 04:39:55;;;;;;;45.85;38.95;;;;;;;;;;5048295;28;20683;-84
2021/06/13 04:42:22;;;;;;;47.00;40.80;;;;;;;;;;5053843;28;20400;-84
2021/06/13 04:44:49;;;;;;;47.20;39.97;;;;;;;;;;5052411;28;20404;-84
2021/06/13 04:47:16;;;;;;;45.60;39.08;;;;;;;;;;5050832;28;20414;-84
2021/06/13 04:49:45;;;;;;;46.28;39.95;;;;;;;;;;5045863;28;20399;-84
2021/06/13 04:52:15;;;;;;;49.95;39.20;;;;;;;;;;5055094;28;21181;-84
2021/06/13 04:55:03;;;;;;;46.70;38.08;;;;;;;;;;5052240;28;20405;-84
2021/06/13 04:57:52;;;;;;;44.53;38.20;;;;;;;;;;5041282;28;20411;-84
2021/06/13 05:00:20;;;;;;;45.35;38.05;;;;;;;;;;5044191;28;20694;-83
2021/06/13 05:02:47;;;;;;;47.53;38.38;;;;;;;;;;5052259;28;20402;-84
2021/06/13 05:05:16;;;;;;;45.10;38.45;;;;;;;;;;5053955;28;20403;-82
2021/06/13 05:07:45;;;;;;;43.65;36.50;;;;;;;;;;5054148;28;20673;-83
2021/06/13 05:10:13;;;;;;;42.90;36.38;;;;;;;;;;5049001;28;20891;-83
2021/06/13 05:12:48;;;;;;;41.30;36.17;;;;;;;;;;5054513;28;20413;-82
2021/06/13 05:15:16;;;;;;;43.03;34.80;;;;;;;;;;5052454;28;20404;-82
2021/06/13 05:17:43;;;;;;;42.10;35.20;;;;;;;;;;5053820;28;20418;-82
2021/06/13 05:20:14;;;;;;;38.13;33.70;;;;;;;;;;5054478;28;20818;-83
2021/06/13 05:22:58;;;;;;;37.33;33.22;;;;;;;;;;5056365;28;20494;-82
2021/06/13 05:25:29;;;;;;;41.58;34.63;;;;;;;;;;5050610;28;20420;-83
2021/06/13 05:27:56;;;;;;;38.35;33.42;;;;;;;;;;5057662;28;20769;-82
2021/06/13 05:30:24;;;;;;;37.75;32.75;;;;;;;;;;5056646;28;20755;-83
2021/06/13 05:32:51;;;;;;;35.97;32.07;;;;;;;;;;5053747;28;20901;-83
2021/06/13 05:35:18;;;;;;;38.60;31.13;;;;;;;;;;5052509;28;20415;-83
2021/06/13 05:37:46;;;;;;;35.35;31.50;;;;;;;;;;5047065;28;20436;-83
2021/06/13 05:40:16;;;;;;;34.57;30.30;;;;;;;;;;5055262;28;20900;-82
2021/06/13 05:42:45;;;;;;;32.72;29.25;;;;;;;;;;5051112;28;20466;-83
2021/06/13 05:45:13;;;;;;;34.53;29.02;;;;;;;;;;5054668;28;20402;-83
2021/06/13 05:47:40;;;;;;;33.78;30.17;;;;;;;;;;5054238;28;20404;-83
2021/06/13 05:50:10;;;;;;;32.25;28.85;;;;;;;;;;5057670;28;20409;-83
2021/06/13 05:52:37;;;;;;;32.78;28.80;;;;;;;;;;5047585;28;20404;-82
2021/06/13 05:55:04;;;;;;;30.63;27.27;;;;;;;;;;5057801;28;20398;-83
2021/06/13 05:57:33;;;;;;;32.28;27.23;;;;;;;;;;5046858;28;20419;-83
2021/06/13 06:00:00;;;;;;;31.10;27.35;;;;;;;;;;5056365;28;20736;-83
2021/06/13 06:02:27;;;;;;;30.85;27.58;;;;;;;;;;5054432;28;20587;-82
2021/06/13 06:04:54;;;;;;;30.80;26.90;;;;;;;;;;5046472;28;20887;-83
2021/06/13 06:07:22;;;;;;;27.73;24.83;;;;;;;;;;5049317;28;21193;-83
2021/06/13 06:09:49;;;;;;;27.05;24.15;;;;;;;;;;5053701;28;20420;-82
2021/06/13 06:12:16;;;;;;;26.48;23.70;;;;;;;;;;5050516;28;20406;-82
2021/06/13 06:14:46;;;;;;;25.50;22.90;;;;;;;;;;5053582;28;20737;-82
2021/06/13 06:17:13;;;;;;;24.90;22.20;;;;;;;;;;5050791;28;20395;-83
2021/06/13 06:19:41;;;;;;;24.42;21.52;;;;;;;;;;5056493;28;20840;-82
2021/06/13 06:22:08;;;;;;;24.52;21.88;;;;;;;;;;5055273;28;20400;-83
2021/06/13 06:24:36;;;;;;;27.53;23.97;;;;;;;;;;5053593;28;20405;-83
2021/06/13 06:27:04;;;;;;;26.50;23.58;;;;;;;;;;5049429;28;20732;-83
2021/06/13 06:29:31;;;;;;;27.98;24.67;;;;;;;;;;5056141;28;20394;-81
2021/06/13 06:32:00;;;;;;;27.02;24.23;;;;;;;;;;5051087;28;20402;-83
2021/06/13 06:34:27;;;;;;;26.67;23.88;;;;;;;;;;5049607;28;20406;-81
2021/06/13 06:36:54;;;;;;;27.47;24.37;;;;;;;;;;5051957;28;20406;-81
2021/06/13 06:39:21;;;;;;;26.38;23.65;;;;;;;;;;5055410;28;20427;-81
2021/06/13 06:41:48;;;;;;;27.25;24.35;;;;;;;;;;5046947;28;20746;-81
2021/06/13 06:44:16;;;;;;;26.88;24.02;;;;;;;;;;5052013;28;20412;-83
2021/06/13 06:46:43;;;;;;;27.50;23.40;;;;;;;;;;5052000;28;20407;-81
2021/06/13 06:49:12;;;;;;;25.17;22.50;;;;;;;;;;5056282;28;20398;-82
2021/06/13 06:51:39;;;;;;;24.63;22.02;;;;;;;;;;5053500;28;20394;-80
2021/06/13 06:54:06;;;;;;;25.55;22.85;;;;;;;;;;5056829;28;20399;-83
2021/06/13 06:56:32;;;;;;;25.43;22.73;;;;;;;;;;5052396;28;20389;-82
2021/06/13 06:59:00;;;;;;;25.80;23.03;;;;;;;;;;5053895;28;20416;-83
2021/06/13 07:01:27;;;;;;;27.80;24.80;;;;;;;;;;5048350;28;20908;-82
2021/06/13 07:03:54;;;;;;;27.33;24.38;;;;;;;;;;5048166;28;20402;-82
2021/06/13 07:06:22;;;;;;;26.10;23.50;;;;;;;;;;5047646;28;20391;-82
2021/06/13 07:08:50;;;;;;;25.02;22.33;;;;;;;;;;5057678;28;20786;-80
2021/06/13 07:11:17;;;;;;;25.05;22.35;;;;;;;;;;5043797;28;20396;-82
2021/06/13 07:13:44;;;;;;;26.15;23.40;;;;;;;;;;5066024;28;20380;-82
2021/06/13 07:16:11;;;;;;;24.48;21.88;;;;;;;;;;5072485;28;20391;-82
2021/06/13 07:18:38;;;;;;;24.25;21.27;;;;;;;;;;5068498;28;20805;-82
2021/06/13 07:21:08;;;;;;;24.08;21.52;;;;;;;;;;5049309;28;20406;-82
2021/06/13 07:23:36;;;;;;;22.92;20.45;;;;;;;;;;5045797;28;20406;-82
2021/06/13 07:26:04;;;;;;;23.02;20.67;;;;;;;;;;5047436;28;20401;-83
2021/06/13 07:28:32;;;;;;;21.17;19.02;;;;;;;;;;5052054;28;20398;-86
2021/06/13 07:30:59;;;;;;;22.25;19.95;;;;;;;;;;5045994;28;20880;-83
2021/06/13 07:33:27;;;;;;;21.92;19.63;;;;;;;;;;5052193;28;20470;-84
2021/06/13 07:35:54;;;;;;;21.70;19.38;;;;;;;;;;5049009;28;20409;-83
2021/06/13 07:38:21;;;;;;;21.47;19.27;;;;;;;;;;5050090;28;20425;-83
2021/06/13 07:40:50;;;;;;;23.03;20.70;;;;;;;;;;5052032;28;20398;-82
2021/06/13 07:43:17;;;;;;;21.05;18.85;;;;;;;;;;5045808;28;20413;-83
2021/06/13 07:45:44;;;;;;;23.88;20.20;;;;;;;;;;5055073;28;20390;-83
2021/06/13 07:48:12;;;;;;;21.83;19.55;;;;;;;;;;5050208;28;20418;-83
2021/06/13 07:50:41;;;;;;;21.83;19.63;;;;;;;;;;5055581;28;20497;-83
2021/06/13 07:53:08;;;;;;;20.75;18.65;;;;;;;;;;5045756;28;20469;-83
2021/06/13 07:55:35;;;;;;;20.80;18.65;;;;;;;;;;5051508;28;20394;-83
2021/06/13 07:58:04;;;;;;;22.33;19.95;;;;;;;;;;5050381;28;20496;-83
2021/06/13 08:00:31;;;;;;;21.10;18.90;;;;;;;;;;5051095;28;20873;-83
2021/06/13 08:02:58;;;;;;;19.88;17.73;;;;;;;;;;5054106;28;20402;-82
2021/06/13 08:05:28;;;;;;;20.42;18.40;;;;;;;;;;5051736;28;20396;-83
2021/06/13 08:07:56;;;;;;;20.63;18.53;;;;;;;;;;5054312;28;20431;-83
2021/06/13 08:10:23;;;;;;;20.40;18.17;;;;;;;;;;5041540;28;20403;-83
2021/06/13 08:12:50;;;;;;;20.13;18.13;;;;;;;;;;5036963;28;20393;-84
2021/06/13 08:15:19;;;;;;;21.17;19.00;;;;;;;;;;5040292;28;20409;-83
2021/06/13 08:17:46;;;;;;;19.83;17.80;;;;;;;;;;5035769;28;20396;-82
2021/06/13 08:20:15;;;;;;;20.13;18.07;;;;;;;;;;5037682;28;20435;-83
2021/06/13 08:22:42;;;;;;;21.10;18.88;;;;;;;;;;5036698;28;20405;-83
2021/06/13 08:25:10;;;;;;;20.10;18.00;;;;;;;;;;5031475;28;20408;-84
2021/06/13 08:27:38;;;;;;;19.67;17.67;;;;;;;;;;5041689;28;21222;-83
2021/06/13 08:30:06;;;;;;;18.00;16.17;;;;;;;;;;5034624;28;20401;-83
2021/06/13 08:32:35;;;;;;;17.23;15.63;;;;;;;;;;5035949;28;20400;-84
2021/06/13 08:35:03;;;;;;;21.08;18.77;;;;;;;;;;5039371;28;20407;-83
2021/06/13 08:37:30;;;;;;;18.30;16.50;;;;;;;;;;5039182;28;20405;-84
2021/06/13 08:39:57;;;;;;;17.98;16.05;;;;;;;;;;5045641;28;20843;-85
2021/06/13 08:42:24;;;;;;;19.13;16.97;;;;;;;;;;5049517;28;20400;-83
2021/06/13 08:44:52;;;;;;;19.60;17.77;;;;;;;;;;5049165;28;20925;-83
2021/06/13 08:47:22;;;;;;;16.77;15.07;;;;;;;;;;5051174;28;20665;-83
2021/06/13 08:49:51;;;;;;;17.98;16.05;;;;;;;;;;5061863;28;20398;-82
2021/06/13 08:52:18;;;;;;;16.98;15.23;;;;;;;;;;5059805;28;20403;-83
2021/06/13 08:54:46;;;;;;;16.27;14.65;;;;;;;;;;5069694;28;20416;-84
2021/06/13 08:57:16;;;;;;;15.90;14.30;;;;;;;;;;5067014;28;20396;-82
2021/06/13 08:59:43;;;;;;;18.23;16.30;;;;;;;;;;5070890;28;20423;-82
2021/06/13 09:02:10;;;;;;;17.13;15.32;;;;;;;;;;5063915;28;20380;-82
2021/06/13 09:04:37;;;;;;;18.35;16.58;;;;;;;;;;5076935;28;20407;-83
2021/06/13 09:07:14;;;;;;;15.03;13.30;;;;;;;;;;5064488;28;20535;-83
2021/06/13 09:09:41;;;;;;;15.93;14.20;;;;;;;;;;5053471;28;20845;-83
2021/06/13 09:12:10;;;;;;;20.53;15.97;;;;;;;;;;5049415;28;20477;-82
2021/06/13 09:14:42;;;;;;;18.17;16.30;;;;;;;;;;5057112;28;20886;-83
2021/06/13 09:17:14;;;;;;;17.10;15.25;;;;;;;;;;5053043;28;20413;-82
2021/06/13 09:20:17;;;;;;;19.00;17.15;;;;;;;;;;5054695;28;20916;-83
2021/06/13 09:23:05;;;;;;;16.65;14.35;;;;;;;;;;5049661;28;20420;-83
2021/06/13 09:25:33;;;;;;;16.35;14.75;;;;;;;;;;5053452;28;20929;-83
2021/06/13 09:28:08;;;;;;;16.42;14.23;;;;;;;;;;5053607;28;20413;-83
2021/06/13 09:30:37;;;;;;;16.65;15.02;;;;;;;;;;5039758;28;20398;-82
2021/06/13 09:33:07;;;;;;;15.73;14.13;;;;;;;;;;5048906;28;20402;-83
2021/06/13 09:35:35;;;;;;;16.15;14.55;;;;;;;;;;5049289;28;20877;-82
2021/06/13 09:38:08;;;;;;;15.18;13.57;;;;;;;;;;5048028;28;20410;-83
2021/06/13 09:40:36;;;;;;;16.63;14.85;;;;;;;;;;5050481;28;20394;-83
2021/06/13 09:43:28;;;;;;;16.55;14.93;;;;;;;;;;5045250;28;20717;-83
2021/06/13 09:45:58;;;;;;;18.10;16.42;;;;;;;;;;5036360;28;20914;-81
2021/06/13 09:48:26;;;;;;;17.75;15.88;;;;;;;;;;5054407;28;20404;-83
2021/06/13 09:50:54;;;;;;;16.83;15.23;;;;;;;;;;5037730;28;20395;-80
2021/06/13 09:53:25;;;;;;;18.07;16.10;;;;;;;;;;5043083;28;20496;-82
2021/06/13 09:56:07;;;;;;;16.13;14.63;;;;;;;;;;5041159;28;20406;-82
2021/06/13 09:58:35;;;;;;;17.30;15.52;;;;;;;;;;5042443;28;20844;-83
2021/06/13 10:01:09;;;;;;;17.40;15.60;;;;;;;;;;5043039;28;20398;-84
2021/06/13 10:03:37;;;;;;;16.07;14.63;;;;;;;;;;5037495;28;20417;-82
2021/06/13 10:06:06;;;;;;;16.58;14.93;;;;;;;;;;5038899;28;20862;-81
2021/06/13 10:08:35;;;;;;;17.57;15.83;;;;;;;;;;5040531;28;20402;-81
2021/06/13 10:11:04;;;;;;;17.67;15.88;;;;;;;;;;5038844;28;20976;-84
2021/06/13 10:13:43;;;;;;;17.13;15.40;;;;;;;;;;5038382;28;20402;-82
2021/06/13 10:16:11;;;;;;;18.40;16.70;;;;;;;;;;5038640;28;20688;-83
2021/06/13 10:18:40;;;;;;;19.45;17.45;;;;;;;;;;5036293;28;20872;-83
2021/06/13 10:21:09;;;;;;;16.50;14.88;;;;;;;;;;5035977;28;20661;-82
2021/06/13 10:23:38;;;;;;;17.08;15.40;;;;;;;;;;5032244;28;20391;-83
2021/06/13 10:26:07;;;;;;;15.45;13.82;;;;;;;;;;5036229;28;20410;-81
2021/06/13 10:28:34;;;;;;;16.48;14.77;;;;;;;;;;5035685;28;20881;-81
2021/06/13 10:31:02;;;;;;;20.23;18.23;;;;;;;;;;5036510;28;20757;-83
2021/06/13 10:33:29;;;;;;;19.48;17.42;;;;;;;;;;5034181;28;20404;-82
2021/06/13 10:35:59;;;;;;;18.38;16.58;;;;;;;;;;5038930;28;20416;-81
2021/06/13 10:38:26;;;;;;;19.73;17.67;;;;;;;;;;5034755;28;20415;-83
2021/06/13 10:40:55;;;;;;;17.10;15.43;;;;;;;;;;5045324;28;20402;-84
2021/06/13 10:43:24;;;;;;;17.17;15.47;;;;;;;;;;5038014;28;20423;-83
2021/06/13 10:45:55;;;;;;;16.70;15.00;;;;;;;;;;5041347;28;20494;-82
2021/06/13 10:48:23;;;;;;;15.15;13.55;;;;;;;;;;5040625;28;20415;-83
2021/06/13 10:50:50;;;;;;;14.30;12.90;;;;;;;;;;5038654;28;20975;-83
2021/06/13 10:53:33;;;;;;;13.55;12.20;;;;;;;;;;5039333;28;20397;-82
2021/06/13 10:56:04;;;;;;;12.88;11.68;;;;;;;;;;5034945;28;20460;-83
2021/06/13 10:58:47;;;;;;;13.43;12.13;;;;;;;;;;5030170;28;20414;-83
2021/06/13 11:01:25;;;;;;;12.95;11.63;;;;;;;;;;5041330;28;20417;-83
2021/06/13 11:04:03;;;;;;;15.60;14.00;;;;;;;;;;5039410;28;20496;-81
2021/06/13 11:06:45;;;;;;;15.38;13.88;;;;;;;;;;5041455;28;20495;-82
2021/06/13 11:09:14;;;;;;;15.05;13.57;;;;;;;;;;5043923;28;20409;-82
2021/06/13 11:11:44;;;;;;;17.95;15.95;;;;;;;;;;5040698;28;20487;-81
2021/06/13 11:14:25;;;;;;;18.30;16.50;;;;;;;;;;5050924;28;20417;-82
2021/06/13 11:16:52;;;;;;;16.73;15.07;;;;;;;;;;5052264;28;20402;-82
2021/06/13 11:19:31;;;;;;;18.85;16.95;;;;;;;;;;5053486;28;20414;-82
2021/06/13 11:22:34;;;;;;;17.15;15.35;;;;;;;;;;5049586;28;20400;-81
2021/06/13 11:25:01;;;;;;;14.77;13.27;;;;;;;;;;5050226;28;20401;-82
2021/06/13 11:27:32;;;;;;;16.55;14.95;;;;;;;;;;5044927;28;20405;-80
2021/06/13 11:30:00;;;;;;;16.83;15.23;;;;;;;;;;5043907;28;20492;-81
2021/06/13 11:32:52;;;;;;;16.55;14.95;;;;;;;;;;5039311;28;20407;-80
2021/06/13 11:35:30;;;;;;;17.40;15.70;;;;;;;;;;5041149;28;20403;-82
2021/06/13 11:38:28;;;;;;;15.93;14.25;;;;;;;;;;5039014;28;20413;-84
2021/06/13 11:40:58;;;;;;;21.97;19.77;;;;;;;;;;5038695;28;20958;-82
2021/06/13 11:43:30;;;;;;;18.17;16.38;;;;;;;;;;5037597;28;20807;-83
2021/06/13 11:46:00;;;;;;;19.63;17.73;;;;;;;;;;5041559;28;20764;-83
2021/06/13 11:48:29;;;;;;;20.02;17.88;;;;;;;;;;5037301;28;20411;-81
2021/06/13 11:51:10;;;;;;;18.10;16.30;;;;;;;;;;5041875;28;20410;-82
2021/06/13 11:53:58;;;;;;;18.83;16.92;;;;;;;;;;5041915;28;20423;-82
2021/06/13 11:56:46;;;;;;;16.70;15.18;;;;;;;;;;5035925;28;20402;-82
2021/06/13 11:59:19;;;;;;;16.50;14.82;;;;;;;;;;5035599;28;20437;-82
2021/06/13 12:01:54;;;;;;;15.75;14.25;;;;;;;;;;5039568;28;20425;-83
2021/06/13 12:04:23;;;;;;;18.23;16.43;;;;;;;;;;5037785;28;20400;-81
2021/06/13 12:06:51;;;;;;;21.60;19.40;;;;;;;;;;5038820;28;20407;-81
2021/06/13 12:09:19;;;;;;;17.67;16.00;;;;;;;;;;5039083;28;20895;-81
2021/06/13 12:11:50;;;;;;;13.98;12.55;;;;;;;;;;5035315;28;20415;-82
2021/06/13 12:14:24;;;;;;;13.80;12.43;;;;;;;;;;5037764;28;20419;-82
2021/06/13 12:16:52;;;;;;;14.33;13.03;;;;;;;;;;5042082;28;20409;-81
2021/06/13 12:19:29;;;;;;;13.65;12.25;;;;;;;;;;5037364;28;20787;-81
2021/06/13 12:22:12;;;;;;;14.90;13.50;;;;;;;;;;5036023;28;21578;-82
2021/06/13 12:27:21;;;;;;;14.93;13.35;;;;;;;;;;5040969;28;20401;-82
2021/06/13 12:27:28;;;;;;;16.98;15.27;;;;;;;;;;5042710;28;20493;-82
2021/06/13 12:29:59;;;;;;;18.90;14.80;;;;;;;;;;5046199;28;20435;-80
2021/06/13 12:32:27;;;;;;;15.90;14.38;;;;;;;;;;5035039;28;20412;-82
2021/06/13 12:35:07;;;;;;;19.67;17.77;;;;;;;;;;5041118;28;20561;-81
2021/06/13 12:37:35;;;;;;;17.48;15.57;;;;;;;;;;5040585;28;20410;-84
2021/06/13 12:40:05;;;;;;;13.55;12.38;;;;;;;;;;5040710;28;20415;-79
2021/06/13 12:42:32;;;;;;;15.85;14.35;;;;;;;;;;5039901;28;20907;-82
2021/06/13 12:45:04;;;;;;;13.00;11.90;;;;;;;;;;5042915;28;20921;-82
2021/06/13 12:47:31;;;;;;;12.60;11.50;;;;;;;;;;5042520;28;20412;-81
2021/06/13 12:49:59;;;;;;;11.40;10.15;;;;;;;;;;5042012;28;21094;-82
2021/06/13 12:52:27;;;;;;;12.07;10.93;;;;;;;;;;5045317;28;20430;-83
2021/06/13 12:54:57;;;;;;;15.60;14.20;;;;;;;;;;5045441;28;20765;-83
2021/06/13 12:57:25;;;;;;;15.15;13.65;;;;;;;;;;5048302;28;20403;-83
2021/06/13 12:59:52;;;;;;;11.98;10.88;;;;;;;;;;5040302;28;20423;-81
2021/06/13 13:02:22;;;;;;;13.90;12.60;;;;;;;;;;5046875;28;20429;-83
2021/06/13 13:04:51;;;;;;;11.93;10.77;;;;;;;;;;5043676;28;20427;-83
2021/06/13 13:07:32;;;;;;;13.45;12.15;;;;;;;;;;5040512;28;20414;-82
2021/06/13 13:10:07;;;;;;;12.82;11.50;;;;;;;;;;5039324;28;20407;-83
2021/06/13 13:12:35;;;;;;;14.63;13.32;;;;;;;;;;5045378;28;20453;-83
2021/06/13 13:15:14;;;;;;;13.95;12.65;;;;;;;;;;5041887;28;20826;-83
2021/06/13 13:17:44;;;;;;;15.00;13.60;;;;;;;;;;5035998;28;20423;-83
2021/06/13 13:20:17;;;;;;;14.32;13.02;;;;;;;;;;5042653;28;20451;-82
2021/06/13 13:22:44;;;;;;;11.90;10.80;;;;;;;;;;5035386;28;20401;-82
2021/06/13 13:25:12;;;;;;;14.05;12.65;;;;;;;;;;5039332;28;20426;-84
2021/06/13 13:27:40;;;;;;;12.40;11.20;;;;;;;;;;5038592;28;20402;-86
2021/06/13 13:30:26;;;;;;;10.63;9.65;;;;;;;;;;5047276;28;20402;-81
2021/06/13 13:32:55;;;;;;;12.77;11.47;;;;;;;;;;5047949;28;20450;-80
2021/06/13 13:35:30;;;;;;;11.98;10.88;;;;;;;;;;5044592;28;21084;-81
2021/06/13 13:37:58;;;;;;;11.07;9.97;;;;;;;;;;5044650;28;20426;-81
2021/06/13 13:40:26;;;;;;;10.07;9.15;;;;;;;;;;5047110;28;20930;-82
2021/06/13 13:42:58;;;;;;;8.57;7.40;;;;;;;;;;5047076;28;20978;-82
2021/06/13 13:45:26;;;;;;;8.35;7.57;;;;;;;;;;5049045;28;20395;-82
2021/06/13 13:47:55;;;;;;;7.88;7.18;;;;;;;;;;5052253;28;20792;-81
2021/06/13 13:50:35;;;;;;;9.45;8.65;;;;;;;;;;5052578;28;20420;-81
2021/06/13 13:53:17;;;;;;;8.23;7.53;;;;;;;;;;5045700;28;20404;-82
2021/06/13 13:55:49;;;;;;;7.07;6.40;;;;;;;;;;5051447;28;20390;-81
2021/06/13 13:58:17;;;;;;;6.00;5.60;;;;;;;;;;5053876;28;20437;-82
2021/06/13 14:00:45;;;;;;;6.20;5.70;;;;;;;;;;5048499;28;20415;-81
2021/06/13 14:03:13;;;;;;;7.47;6.65;;;;;;;;;;5048318;28;20394;-82
2021/06/13 14:05:40;;;;;;;6.30;5.70;;;;;;;;;;5044273;28;20823;-82
2021/06/13 14:08:07;;;;;;;7.05;5.25;;;;;;;;;;5057538;28;20400;-82
2021/06/13 14:10:34;;;;;;;5.63;5.22;;;;;;;;;;5075766;28;20398;-81
2021/06/13 14:13:01;;;;;;;4.97;4.50;;;;;;;;;;5077456;28;20827;-82
2021/06/13 14:15:28;;;;;;;5.68;4.93;;;;;;;;;;5076932;28;20419;-82
2021/06/13 14:17:56;;;;;;;5.53;4.93;;;;;;;;;;5057911;28;20415;-83
2021/06/13 14:20:25;;;;;;;6.20;5.60;;;;;;;;;;5049123;28;20423;-82
2021/06/13 14:22:53;;;;;;;5.57;5.07;;;;;;;;;;5047538;28;20793;-81
2021/06/13 14:25:20;;;;;;;7.25;5.75;;;;;;;;;;5050029;28;20888;-81
2021/06/13 14:27:47;;;;;;;6.13;5.38;;;;;;;;;;5047379;28;20776;-82
2021/06/13 14:30:15;;;;;;;7.38;5.93;;;;;;;;;;5046877;28;20402;-82
2021/06/13 14:32:42;;;;;;;6.78;6.10;;;;;;;;;;5046303;28;20870;-83
2021/06/13 14:35:10;;;;;;;7.00;6.40;;;;;;;;;;5049638;28;20417;-83